Thunderstorms From: 20-05-2018 15:00 Until: 21-05-2018 15:00 warning for: Thunderstorms Level: Yellow info button

Although rather usual in this region, locally or potentially dangerous phenomena are expected. (such as local winds, summer thunderstorms, rising streams or high waves) Be aware and pay attention to the latest weather updates, especially if you carry out activities exposed to weather or close to a stream or shoreline. 


Meteo18 Weather Cam more information Meteo18 Weather Cam


warning for Thunderstorms more information blitzortung!


Rain radar more information rain snow radar


Visit our other weather sites:

Template documentation
and downloads

And another site



Weather Underground History page Text

Daily Summary for September 26, 2016 Units:  Metric    English   Both
« Previous Day
Next Day »
Daily Weekly Monthly Yearly Custom
  High: Low: Average:
Temperature: -17.8 °C -13.1 °C -10.3 °C
Dew Point: -17.8 °C -13.6 °C -12.6 °C
Humidity: Humidity % 45 % 79 %
Wind Speed: 0 km/h 0 km/h 3.1 km/h
Wind Gust: 0 km/h - -
Wind:- - East
Pressure: 0 hPa 34577.8 hPa -
Precipitation: 7.62 mm    
Historical Graphs
 
 
Tabular Data for September 26, 2016
Time Temperature Dew Point Pressure Wind Wind Speed Wind Gust Humidity Rainfall Rate (Hourly)
-17.8 °C -17.8 °C 0 hPa Calm     Humidity % 0 mm
00:02 -11.8 °C -12.4 °C 34625.2 hPa Calm   2.6 km/h 93 % 0 mm
00:12 -12 °C -12.7 °C 34625.2 hPa NW 2.6 km/h   92 % 0 mm
00:17 -12 °C -12.6 °C 34625.2 hPa North 2.6 km/h 5.1 km/h 93 % 0 mm
00:22 -12.1 °C -12.7 °C 34625.2 hPa NNE 5.1 km/h 5.1 km/h 93 % 0 mm
00:27 -12.1 °C -12.7 °C 34635.4 hPa Calm   5.1 km/h 93 % 0 mm
00:37 -12.2 °C -12.8 °C 34625.2 hPa Calm   5.1 km/h 93 % 0 mm
00:42 -12.2 °C -12.8 °C 34625.2 hPa North 2.6 km/h 2.6 km/h 93 % 0 mm
00:52 -12.3 °C -12.9 °C 34625.2 hPa Calm   2.6 km/h 93 % 0 mm
01:02 -12.4 °C -13 °C 34625.2 hPa Calm   2.6 km/h 93 % 0 mm
01:07 -12.4 °C -13.1 °C 34625.2 hPa Calm   2.6 km/h 93 % 0 mm
01:12 -12.4 °C -12.9 °C 34625.2 hPa WNW 2.6 km/h 2.6 km/h 94 % 0 mm
01:17 -12.4 °C -12.9 °C 34625.2 hPa Calm   2.6 km/h 94 % 0 mm
01:22 -12.4 °C -12.9 °C 34625.2 hPa Calm   2.6 km/h 94 % 0 mm
01:32 -12.3 °C -12.8 °C 34625.2 hPa NNE 2.6 km/h 2.6 km/h 94 % 0 mm
01:37 -12.3 °C -12.8 °C 34625.2 hPa Calm   7.7 km/h 94 % 0 mm
01:47 -12.4 °C -12.9 °C 34625.2 hPa North 2.6 km/h 2.6 km/h 94 % 0 mm
01:52 -12.4 °C -12.9 °C 34625.2 hPa Calm   2.6 km/h 94 % 0 mm
01:57 -12.4 °C -12.9 °C 34625.2 hPa Calm   2.6 km/h 94 % 0 mm
02:02 -12.4 °C -12.9 °C 34625.2 hPa Calm   2.6 km/h 94 % 0 mm
02:07 -12.5 °C -13 °C 34625.2 hPa Calm   2.6 km/h 94 % 0 mm
02:12 -12.6 °C -13.1 °C 34625.2 hPa Calm     94 % 0 mm
02:17 -12.6 °C -13.1 °C 34635.4 hPa Calm     95 % 0 mm
02:22 -12.5 °C -12.9 °C 34635.4 hPa Calm     95 % 0 mm
02:32 -12.5 °C -12.9 °C 34635.4 hPa Calm     95 % 0 mm
02:37 -12.6 °C -13.1 °C 34635.4 hPa Calm     94 % 0 mm
02:42 -12.7 °C -13.2 °C 34635.4 hPa WNW 5.1 km/h   94 % 0 mm
02:47 -12.7 °C -13.1 °C 34635.4 hPa WNW 5.1 km/h 5.1 km/h 95 % 0 mm
02:52 -12.6 °C -13 °C 34635.4 hPa Calm   5.1 km/h 95 % 0 mm
02:57 -12.6 °C -13.1 °C 34635.4 hPa Calm   5.1 km/h 95 % 0 mm
03:02 -12.6 °C -13.1 °C 34635.4 hPa Calm   5.1 km/h 95 % 0 mm
03:12 -12.8 °C -13.3 °C 34635.4 hPa Calm   2.6 km/h 94 % 0 mm
03:17 -12.8 °C -13.3 °C 34635.4 hPa Calm     94 % 0 mm
03:22 -13 °C -13.5 °C 34635.4 hPa Calm     94 % 0 mm
03:32 -13 °C -13.4 °C 34635.4 hPa Calm     95 % 0 mm
03:37 -12.9 °C -13.4 °C 34635.4 hPa Calm     95 % 0 mm
03:42 -12.8 °C -13.2 °C 34635.4 hPa Calm     96 % 0 mm
03:47 -12.9 °C -13.3 °C 34635.4 hPa Calm     95 % 0 mm
03:52 -12.8 °C -13.2 °C 34635.4 hPa Calm     96 % 0 mm
03:57 -12.7 °C -13 °C 34635.4 hPa Calm     96 % 0 mm
04:02 -12.8 °C -13.3 °C 34635.4 hPa Calm     94 % 0 mm
04:12 -13.1 °C -13.5 °C 34635.4 hPa WNW 2.6 km/h   95 % 7.62 mm
04:17 -12.7 °C -12.9 °C 34625.2 hPa Calm   5.1 km/h 97 % 7.62 mm
04:22 -12.7 °C -13 °C 34635.4 hPa NNE 5.1 km/h 5.1 km/h 96 % 7.62 mm
04:32 -13 °C -13.4 °C 34625.2 hPa North 2.6 km/h 7.7 km/h 95 % 7.62 mm
04:37 -12.9 °C -13.3 °C 34625.2 hPa NNW 2.6 km/h 5.1 km/h 96 % 7.62 mm
04:42 -12.9 °C -13.4 °C 34625.2 hPa Calm   5.1 km/h 95 % 7.62 mm
04:47 -12.9 °C -13.4 °C 34625.2 hPa Calm   5.1 km/h 95 % 7.62 mm
04:57 -12.7 °C -13.1 °C 34625.2 hPa NNW 2.6 km/h 5.1 km/h 96 % 7.62 mm
05:02 -12.8 °C -13.2 °C 34625.2 hPa Calm   5.1 km/h 95 % 7.62 mm
05:07 -13 °C -13.4 °C 34625.2 hPa WNW 2.6 km/h 5.1 km/h 95 % 0 mm
05:12 -13 °C -13.3 °C 34625.2 hPa Calm   5.1 km/h 96 % 0 mm
05:17 -12.9 °C -13.2 °C 34625.2 hPa Calm   2.6 km/h 96 % 0 mm
05:22 -12.9 °C -13.2 °C 34625.2 hPa Calm   2.6 km/h 96 % 0 mm
05:32 -12.9 °C -13.2 °C 34625.2 hPa Calm   2.6 km/h 96 % 0 mm
05:42 -12.9 °C -13.3 °C 34635.4 hPa Calm     96 % 0 mm
05:52 -13.1 °C -13.5 °C 34635.4 hPa North 5.1 km/h   95 % 0 mm
05:57 -12.7 °C -13 °C 34635.4 hPa NNE 2.6 km/h 5.1 km/h 97 % 0 mm
06:02 -12.6 °C -12.9 °C 34635.4 hPa North 2.6 km/h 5.1 km/h 97 % 0 mm
06:12 -12.6 °C -12.9 °C 34635.4 hPa Calm   5.1 km/h 96 % 0 mm
06:17 -12.6 °C -12.9 °C 34635.4 hPa Calm   5.1 km/h 96 % 0 mm
06:22 -12.6 °C -12.9 °C 34625.2 hPa NE 2.6 km/h 5.1 km/h 96 % 0 mm
06:32 -12.4 °C -12.7 °C 34625.2 hPa NNE 5.1 km/h 5.1 km/h 96 % 0 mm
06:37 -12.4 °C -12.7 °C 34625.2 hPa Calm   7.7 km/h 96 % 0 mm
06:42 -12.4 °C -12.8 °C 34635.4 hPa Calm   7.7 km/h 96 % 0 mm
06:52 -12.4 °C -12.7 °C 34625.2 hPa Calm   7.7 km/h 96 % 0 mm
07:02 -12.5 °C -12.9 °C 34625.2 hPa Calm     95 % 0 mm
07:07 -12.6 °C -13.1 °C 34625.2 hPa Calm     95 % 0 mm
07:17 -12.8 °C -13.3 °C 34625.2 hPa Calm     95 % 0 mm
07:22 -12.8 °C -13.2 °C 34635.4 hPa Calm     96 % 0 mm
07:32 -12.8 °C -13.2 °C 34635.4 hPa Calm     96 % 0 mm
07:37 -12.7 °C -13.1 °C 34625.2 hPa Calm     96 % 0 mm
07:42 -12.7 °C -13.1 °C 34625.2 hPa Calm     96 % 0 mm
07:47 -12.7 °C -13.1 °C 34625.2 hPa NE 5.1 km/h   96 % 0 mm
07:52 -12.6 °C -12.9 °C 34625.2 hPa NE 2.6 km/h 5.1 km/h 97 % 0 mm
07:57 -12.6 °C -12.8 °C 34635.4 hPa Calm   5.1 km/h 97 % 0 mm
08:02 -12.4 °C -12.7 °C 34635.4 hPa Calm   5.1 km/h 97 % 0 mm
08:12 -12.2 °C -12.4 °C 34635.4 hPa Calm   2.6 km/h 97 % 0 mm
08:17 -12.1 °C -12.4 °C 34635.4 hPa Calm   2.6 km/h 97 % 0 mm
08:27 -12.1 °C -12.3 °C 34635.4 hPa Calm     97 % 0 mm
08:32 -12.1 °C -12.3 °C 34635.4 hPa Calm   5.1 km/h 97 % 0 mm
08:37 -12.1 °C -12.3 °C 34635.4 hPa Calm   5.1 km/h 97 % 0 mm
08:42 -12.1 °C -12.3 °C 34635.4 hPa Calm   5.1 km/h 97 % 0 mm
08:52 -12 °C -12.3 °C 34645.6 hPa Calm     97 % 0 mm
08:57 -12 °C -12.3 °C 34645.6 hPa Calm     97 % 0 mm
09:02 -11.9 °C -12.2 °C 34645.6 hPa Calm     97 % 0 mm
09:07 -11.8 °C -12.1 °C 34645.6 hPa Calm     97 % 0 mm
09:12 -11.9 °C -12.2 °C 34645.6 hPa Calm     97 % 0 mm
09:17 -11.8 °C -12.1 °C 34645.6 hPa Calm     97 % 0 mm
09:22 -11.8 °C -12.1 °C 34645.6 hPa Calm   2.6 km/h 97 % 0 mm
09:27 -11.7 °C -12 °C 34645.6 hPa Calm   2.6 km/h 97 % 0 mm
09:37 -11.6 °C -11.9 °C 34645.6 hPa Calm     97 % 0 mm
09:42 -11.6 °C -11.8 °C 34645.6 hPa Calm     97 % 0 mm
09:52 -11.4 °C -11.7 °C 34645.6 hPa Calm     97 % 0 mm
09:57 -11.3 °C -11.6 °C 34645.6 hPa Calm     97 % 0 mm
10:02 -11.3 °C -11.6 °C 34645.6 hPa Calm     97 % 0 mm
10:07 -11.3 °C -11.6 °C 34645.6 hPa Calm     97 % 0 mm
10:12 -11.3 °C -11.6 °C 34645.6 hPa Calm     97 % 0 mm
10:17 -11.3 °C -11.6 °C 34645.6 hPa NNE 2.6 km/h   97 % 0 mm
10:22 -11.3 °C -11.6 °C 34645.6 hPa NE 2.6 km/h 7.7 km/h 97 % 0 mm
10:27 -11.2 °C -11.5 °C 34645.6 hPa Calm   7.7 km/h 97 % 0 mm
10:32 -11.2 °C -11.4 °C 34645.6 hPa Calm   7.7 km/h 97 % 0 mm
10:37 -11.1 °C -11.4 °C 34645.6 hPa NNE 5.1 km/h 7.7 km/h 97 % 0 mm
10:42 -11.1 °C -11.3 °C 34645.6 hPa NE 2.6 km/h 7.7 km/h 97 % 0 mm
10:47 -11 °C -11.3 °C 34645.6 hPa NE 2.6 km/h 7.7 km/h 96 % 0 mm
10:52 -10.9 °C -11.3 °C 34645.6 hPa NE 2.6 km/h 7.7 km/h 96 % 0 mm
10:57 -10.9 °C -11.2 °C 34645.6 hPa Calm   7.7 km/h 96 % 0 mm
11:02 -10.9 °C -11.2 °C 34635.4 hPa Calm   5.1 km/h 96 % 0 mm
11:07 -10.7 °C -11.1 °C 34635.4 hPa NE 2.6 km/h 5.1 km/h 96 % 0 mm
11:12 -10.7 °C -11.1 °C 34635.4 hPa ENE 2.6 km/h 5.1 km/h 95 % 0 mm
11:17 -10.6 °C -11.1 °C 34635.4 hPa Calm   5.1 km/h 95 % 0 mm
11:22 -10.4 °C -10.9 °C 34635.4 hPa Calm   5.1 km/h 94 % 0 mm
11:32 -10.2 °C -10.9 °C 34635.4 hPa ESE 2.6 km/h 7.7 km/h 91 % 0 mm
11:42 -9.8 °C -10.9 °C 34625.2 hPa ESE 2.6 km/h 7.7 km/h 88 % 0 mm
11:47 -9.7 °C -10.8 °C 34625.2 hPa ESE 7.7 km/h 7.7 km/h 87 % 0 mm
12:02 -9.6 °C -11.1 °C 34611.7 hPa Calm   10.3 km/h 84 % 0 mm
12:12 -9.4 °C -11.2 °C 34611.7 hPa ESE 2.6 km/h 12.9 km/h 81 % 0 mm
12:22 -9.5 °C -11.3 °C 34611.7 hPa ESE 2.6 km/h 15.6 km/h 81 % 0 mm
12:27 -9.4 °C -11.1 °C 34601.5 hPa ENE 12.9 km/h 15.6 km/h 82 % 0 mm
12:32 -9.4 °C -11.2 °C 34601.5 hPa East 5.1 km/h 18.2 km/h 81 % 0 mm
12:37 -9.3 °C -11.1 °C 34601.5 hPa Calm   18.2 km/h 82 % 0 mm
12:42 -9.3 °C -11 °C 34601.5 hPa Calm   18.2 km/h 82 % 0 mm
12:52 -9 °C -11 °C 34601.5 hPa NE 5.1 km/h 18.2 km/h 79 % 0 mm
12:57 -9 °C -11 °C 34601.5 hPa East 2.6 km/h 10.3 km/h 79 % 0 mm
13:02 -9 °C -11.1 °C 34601.5 hPa Calm   10.3 km/h 78 % 0 mm
13:07 -8.9 °C -11.2 °C 34601.5 hPa ENE 2.6 km/h 10.3 km/h 76 % 0 mm
13:12 -8.7 °C -11.1 °C 34611.7 hPa Calm   10.3 km/h 76 % 0 mm
13:17 -8.6 °C -11.1 °C 34611.7 hPa Calm   7.7 km/h 75 % 0 mm
13:22 -8.4 °C -11.1 °C 34611.7 hPa Calm   7.7 km/h 73 % 0 mm
13:27 -8.4 °C -11.1 °C 34611.7 hPa Calm   7.7 km/h 73 % 0 mm
13:32 -8.3 °C -11 °C 34611.7 hPa Calm   7.7 km/h 73 % 0 mm
13:42 -8.2 °C -11.1 °C 34611.7 hPa Calm   7.7 km/h 71 % 0 mm
13:47 -8.1 °C -10.9 °C 34611.7 hPa Calm   7.7 km/h 72 % 0 mm
13:52 -8.1 °C -11.1 °C 34611.7 hPa North 7.7 km/h 7.7 km/h 71 % 0 mm
13:57 -8.2 °C -11.1 °C 34601.5 hPa ENE 5.1 km/h 10.3 km/h 71 % 0 mm
14:02 -8.2 °C -11.2 °C 34601.5 hPa East 5.1 km/h 10.3 km/h 70 % 0 mm
14:07 -8.2 °C -11.2 °C 34601.5 hPa NW 2.6 km/h 10.3 km/h 70 % 0 mm
14:12 -8 °C -11.2 °C 34601.5 hPa Calm   10.3 km/h 69 % 0 mm
14:17 -7.7 °C -11.3 °C 34601.5 hPa East 2.6 km/h 10.3 km/h 66 % 0 mm
14:27 -7.6 °C -11.6 °C 34601.5 hPa NE 7.7 km/h 15.6 km/h 63 % 0 mm
14:32 -7.5 °C -11.6 °C 34601.5 hPa ENE 10.3 km/h 15.6 km/h 62 % 0 mm
14:42 -7.1 °C -11.8 °C 34601.5 hPa ESE 2.6 km/h 18.2 km/h 58 % 0 mm
14:52 -7.1 °C -12.3 °C 34591.4 hPa NNE 10.3 km/h 12.9 km/h 55 % 0 mm
14:57 -7.1 °C -13.1 °C 34591.4 hPa ENE 5.1 km/h 20.8 km/h 50 % 0 mm
15:02 -7.2 °C -12.6 °C 34591.4 hPa East 5.1 km/h 20.8 km/h 53 % 0 mm
15:07 -7.1 °C -12.9 °C 34591.4 hPa ENE 5.1 km/h 18.2 km/h 51 % 0 mm
15:12 -6.8 °C -13.1 °C 34591.4 hPa ENE 15.6 km/h 18.2 km/h 48 % 0 mm
15:17 -6.9 °C -13.3 °C 34591.4 hPa NE 2.6 km/h 18.2 km/h 47 % 0 mm
15:22 -6.8 °C -13.4 °C 34591.4 hPa SE 2.6 km/h 18.2 km/h 46 % 0 mm
15:27 -6.9 °C -13.6 °C 34591.4 hPa NE 7.7 km/h 18.2 km/h 46 % 0 mm
15:32 -6.9 °C -13 °C 34591.4 hPa ENE 7.7 km/h 18.2 km/h 49 % 0 mm
15:37 -6.7 °C -12.7 °C 34591.4 hPa SE 2.6 km/h 15.6 km/h 50 % 0 mm
15:42 -6.7 °C -12.9 °C 34591.4 hPa SE 10.3 km/h 15.6 km/h 48 % 0 mm
15:52 -6.6 °C -13.1 °C 34591.4 hPa SSE 2.6 km/h 15.6 km/h 47 % 0 mm
15:57 -6.5 °C -12.8 °C 34591.4 hPa Calm   12.9 km/h 48 % 0 mm
16:02 -6.4 °C -12.8 °C 34591.4 hPa South 10.3 km/h 12.9 km/h 48 % 0 mm
16:07 -6.4 °C -12.6 °C 34591.4 hPa SSW 10.3 km/h 15.6 km/h 49 % 0 mm
16:12 -6.4 °C -12.8 °C 34591.4 hPa SW 7.7 km/h 15.6 km/h 48 % 0 mm
16:17 -6.4 °C -12.7 °C 34591.4 hPa SW 7.7 km/h 12.9 km/h 48 % 0 mm
16:22 -6.5 °C -13 °C 34591.4 hPa WSW 7.7 km/h 12.9 km/h 47 % 0 mm
16:32 -6.3 °C -13.2 °C 34591.4 hPa Calm   18.2 km/h 45 % 0 mm
16:47 -6.4 °C -12.9 °C 34591.4 hPa NE 7.7 km/h 25.9 km/h 47 % 0 mm
16:52 -6.5 °C -13 °C 34591.4 hPa ENE 10.3 km/h 25.9 km/h 47 % 0 mm
16:57 -6.6 °C -13.1 °C 34577.8 hPa NE 20.8 km/h 25.9 km/h 47 % 0 mm
17:02 -6.7 °C -13 °C 34577.8 hPa NE 7.7 km/h 25.9 km/h 48 % 0 mm
17:07 -6.7 °C -13 °C 34591.4 hPa NE 23.3 km/h 23.3 km/h 48 % 0 mm
17:12 -6.9 °C -12.8 °C 34591.4 hPa ENE 15.6 km/h 23.3 km/h 50 % 0 mm
17:22 -6.8 °C -12.8 °C 34591.4 hPa North 12.9 km/h 28.5 km/h 50 % 0 mm
17:32 -6.9 °C -13 °C 34591.4 hPa East 7.7 km/h 28.5 km/h 49 % 0 mm
17:37 -6.9 °C -13.2 °C 34591.4 hPa NE 18.2 km/h 23.3 km/h 48 % 0 mm
17:47 -7.1 °C -13.3 °C 34591.4 hPa NE 7.7 km/h 25.9 km/h 48 % 0 mm
17:52 -7.1 °C -13.5 °C 34591.4 hPa ENE 12.9 km/h 25.9 km/h 47 % 0 mm
17:57 -7.1 °C -13.5 °C 34591.4 hPa ENE 5.1 km/h 20.8 km/h 47 % 0 mm
18:02 -7.1 °C -13.5 °C 34591.4 hPa East 5.1 km/h 20.8 km/h 47 % 0 mm
18:08 -7.1 °C -13.6 °C 34591.4 hPa East 5.1 km/h 20.8 km/h 47 % 0 mm
18:17 -7.1 °C -13.5 °C 34591.4 hPa ENE 10.3 km/h 18.2 km/h 47 % 0 mm
18:22 -7.1 °C -13.5 °C 34591.4 hPa NE 2.6 km/h 15.6 km/h 47 % 0 mm
18:32 -7.1 °C -13.4 °C 34591.4 hPa NNE 7.7 km/h 15.6 km/h 48 % 0 mm
18:37 -7.3 °C -13.2 °C 34601.5 hPa NNE 15.6 km/h 15.6 km/h 50 % 0 mm
18:42 -7.4 °C -13.3 °C 34601.5 hPa North 12.9 km/h 23.3 km/h 50 % 0 mm
18:52 -7.7 °C -13.2 °C 34601.5 hPa NE 10.3 km/h 23.3 km/h 52 % 0 mm
19:02 -7.9 °C -13.1 °C 34601.5 hPa NNE 7.7 km/h 18.2 km/h 54 % 0 mm
19:07 -8 °C -13.1 °C 34601.5 hPa NE 10.3 km/h 12.9 km/h 55 % 0 mm
19:12 -8.1 °C -13.2 °C 34601.5 hPa NE 5.1 km/h 12.9 km/h 55 % 0 mm
19:22 -8.3 °C -13.1 °C 34601.5 hPa NNE 5.1 km/h 12.9 km/h 57 % 0 mm
19:27 -8.4 °C -13.1 °C 34601.5 hPa NE 5.1 km/h 12.9 km/h 58 % 0 mm
19:32 -8.5 °C -13 °C 34611.7 hPa North 2.6 km/h 12.9 km/h 59 % 0 mm
19:37 -8.6 °C -12.9 °C 34611.7 hPa North 2.6 km/h 15.6 km/h 60 % 0 mm
19:42 -8.7 °C -13 °C 34611.7 hPa North 7.7 km/h 15.6 km/h 60 % 0 mm
19:47 -8.8 °C -12.9 °C 34611.7 hPa NNE 2.6 km/h 12.9 km/h 61 % 0 mm
19:52 -8.9 °C -12.9 °C 34611.7 hPa NNE 7.7 km/h 12.9 km/h 62 % 0 mm
19:57 -8.9 °C -12.8 °C 34611.7 hPa NE 7.7 km/h 12.9 km/h 63 % 0 mm
20:02 -9 °C -12.9 °C 34611.7 hPa NE 2.6 km/h 12.9 km/h 63 % 0 mm
20:12 -9.2 °C -12.8 °C 34625.2 hPa NNE 5.1 km/h 12.9 km/h 65 % 0 mm
20:22 -9.3 °C -12.9 °C 34625.2 hPa NE 7.7 km/h 15.6 km/h 65 % 0 mm
20:27 -9.3 °C -12.8 °C 34635.4 hPa NNE 5.1 km/h 15.6 km/h 66 % 0 mm
20:32 -9.3 °C -12.8 °C 34635.4 hPa NE 7.7 km/h 15.6 km/h 66 % 0 mm
20:37 -9.4 °C -12.9 °C 34635.4 hPa NE 7.7 km/h 15.6 km/h 66 % 0 mm
20:47 -9.3 °C -12.7 °C 34635.4 hPa NE 5.1 km/h 15.6 km/h 67 % 0 mm
20:57 -9.6 °C -12.9 °C 34625.2 hPa NE 2.6 km/h 15.6 km/h 67 % 0 mm
21:02 -9.6 °C -12.8 °C 34625.2 hPa NE 2.6 km/h 15.6 km/h 68 % 0 mm
21:12 -9.7 °C -12.9 °C 34625.2 hPa NNE 10.3 km/h 10.3 km/h 68 % 0 mm
21:17 -9.6 °C -12.8 °C 34625.2 hPa NE 7.7 km/h 15.6 km/h 68 % 0 mm
21:22 -9.6 °C -12.8 °C 34635.4 hPa NNE 12.9 km/h 15.6 km/h 68 % 0 mm
21:27 -9.6 °C -13 °C 34635.4 hPa NNE 7.7 km/h 18.2 km/h 67 % 0 mm
21:37 -9.7 °C -12.9 °C 34635.4 hPa Calm   18.2 km/h 68 % 0 mm
21:42 -9.8 °C -13 °C 34635.4 hPa NE 5.1 km/h 18.2 km/h 68 % 0 mm
21:52 -9.9 °C -13.1 °C 34635.4 hPa Calm   7.7 km/h 68 % 0 mm
22:02 -10.1 °C -13.2 °C 34635.4 hPa NNE 2.6 km/h 5.1 km/h 69 % 0 mm
22:12 -10.2 °C -13.2 °C 34635.4 hPa Calm   5.1 km/h 70 % 0 mm
22:22 -10.4 °C -13.2 °C 34635.4 hPa WNW 2.6 km/h 5.1 km/h 72 % 0 mm
22:32 -10.4 °C -13.2 °C 34635.4 hPa Calm   2.6 km/h 72 % 0 mm
22:42 -10.5 °C -13.2 °C 34635.4 hPa Calm   2.6 km/h 72 % 0 mm
22:52 -10.6 °C -13.2 °C 34635.4 hPa Calm   2.6 km/h 73 % 0 mm
22:57 -10.6 °C -13.2 °C 34645.6 hPa Calm   2.6 km/h 73 % 0 mm
23:02 -10.6 °C -13.2 °C 34645.6 hPa Calm   2.6 km/h 73 % 0 mm
23:12 -10.8 °C -13.4 °C 34645.6 hPa Calm   7.7 km/h 73 % 0 mm
23:17 -10.9 °C -13.3 °C 34645.6 hPa Calm   7.7 km/h 75 % 0 mm
23:22 -10.9 °C -13.4 °C 34645.6 hPa Calm   7.7 km/h 74 % 0 mm
23:27 -10.9 °C -13.3 °C 34635.4 hPa Calm   2.6 km/h 75 % 0 mm
23:32 -10.9 °C -13.4 °C 34635.4 hPa Calm   2.6 km/h 74 % 0 mm
23:37 -10.8 °C -13.3 °C 34635.4 hPa WNW 2.6 km/h 2.6 km/h 74 % 0 mm
23:42 -10.9 °C -13.2 °C 34635.4 hPa WNW 2.6 km/h 2.6 km/h 76 % 0 mm
23:47 -11.1 °C -13.3 °C 34635.4 hPa WNW 2.6 km/h 2.6 km/h 76 % 0 mm
23:52 -11.1 °C -13.3 °C 34635.4 hPa Calm   2.6 km/h 76 % 0 mm
Meteo18
Compliments of Weather Underground - 4 mb

Script developed by  Jim McMurry - jmcmurry@mwt.net Adapted for the template by  Wim van der Kuil - Leuven-Template.eu

You find our weather info also at:

European Weather Network

Weather Underground

Equipment we use:

Weather-station
Davis Vue

Weather-program
Meteobridge

Weather-server
Raspberry PI 2 B+

Provider
1 and 1

Davis Vue

Meteobridge

Raspberry PI 2 B+

1 and 1